createdAt,value
2019-05-17T00:02:09.516Z,9.15
2019-05-17T00:04:40.492Z,9.05
2019-05-17T00:07:11.526Z,10.58
2019-05-17T00:09:42.559Z,14.63
2019-05-17T00:12:13.584Z,11.80
2019-05-17T00:14:44.635Z,11.18
2019-05-17T00:17:17.379Z,8.80
2019-05-17T00:19:48.764Z,8.78
2019-05-17T00:22:20.699Z,7.60
2019-05-17T00:24:51.673Z,11.35
2019-05-17T00:27:22.705Z,13.08
2019-05-17T00:29:54.242Z,12.03
2019-05-17T00:32:27.281Z,14.18
2019-05-17T00:34:57.988Z,18.42
2019-05-17T00:37:29.008Z,13.62
2019-05-17T00:40:00.488Z,11.20
2019-05-17T00:42:31.560Z,13.20
2019-05-17T00:45:02.566Z,16.20
2019-05-17T00:47:33.645Z,18.57
2019-05-17T00:50:07.436Z,19.25
2019-05-17T00:52:38.643Z,14.87
2019-05-17T00:55:09.782Z,20.62
2019-05-17T00:57:40.870Z,15.88
2019-05-17T01:00:12.168Z,13.50
2019-05-17T01:02:43.175Z,19.50
2019-05-17T01:05:16.849Z,16.82
2019-05-17T01:07:47.299Z,15.63
2019-05-17T01:10:18.414Z,14.38
2019-05-17T01:12:49.516Z,28.75
2019-05-17T01:15:20.657Z,13.40
2019-05-17T01:17:51.736Z,16.35
2019-05-17T01:20:22.779Z,17.27
2019-05-17T01:22:53.792Z,17.00
2019-05-17T01:25:27.137Z,15.72
2019-05-17T01:27:57.551Z,16.35
2019-05-17T01:30:28.568Z,20.55
2019-05-17T01:32:59.573Z,17.50
2019-05-17T01:35:30.584Z,17.50
2019-05-17T01:38:01.590Z,16.30
2019-05-17T01:40:32.657Z,20.02
2019-05-17T01:43:03.692Z,17.25
2019-05-17T01:45:36.514Z,18.45
2019-05-17T01:48:07.641Z,17.92
2019-05-17T01:50:38.666Z,18.87
2019-05-17T01:53:09.806Z,16.55
2019-05-17T01:55:40.815Z,15.85
2019-05-17T01:58:11.838Z,15.10
2019-05-17T02:00:42.859Z,20.20
2019-05-17T02:03:14.000Z,17.02
2019-05-17T02:05:47.205Z,17.02
2019-05-17T02:08:17.718Z,22.22
2019-05-17T02:10:48.766Z,17.48
2019-05-17T02:13:19.790Z,15.40
2019-05-17T02:15:50.794Z,16.75
2019-05-17T02:18:21.860Z,16.75
2019-05-17T02:20:52.846Z,17.15
2019-05-17T02:23:23.910Z,17.92
2019-05-17T02:25:56.976Z,14.30
2019-05-17T02:28:27.626Z,13.78
2019-05-17T02:30:58.730Z,15.60
2019-05-17T02:33:29.813Z,21.07
2019-05-17T02:36:02.700Z,17.05
2019-05-17T02:38:33.703Z,17.77
2019-05-17T02:41:04.739Z,18.12
2019-05-17T02:43:35.766Z,15.38
2019-05-17T02:46:07.043Z,18.55
2019-05-17T02:48:38.056Z,16.02
2019-05-17T02:51:12.807Z,16.80
2019-05-17T02:53:42.961Z,18.15
2019-05-17T02:56:14.277Z,14.38
2019-05-17T02:58:45.314Z,25.37
2019-05-17T03:01:16.340Z,18.48
2019-05-17T03:03:47.333Z,15.55
2019-05-17T03:06:18.336Z,22.05
2019-05-17T03:08:52.271Z,16.70
2019-05-17T03:11:23.287Z,20.77
2019-05-17T03:13:54.348Z,23.07
2019-05-17T03:16:25.354Z,24.52
2019-05-17T03:18:56.409Z,19.67
2019-05-17T03:21:27.409Z,15.80
2019-05-17T03:23:58.424Z,18.12
2019-05-17T03:26:32.563Z,20.57
2019-05-17T03:29:03.424Z,19.20
2019-05-17T03:31:42.335Z,21.70
2019-05-17T03:34:07.779Z,19.05
2019-05-17T03:36:38.840Z,23.45
2019-05-17T03:39:12.792Z,20.57
2019-05-17T03:41:43.018Z,19.60
2019-05-17T03:44:14.404Z,21.27
2019-05-17T03:46:45.453Z,19.32
2019-05-17T03:49:16.609Z,23.12
2019-05-17T03:51:47.670Z,24.60
2019-05-17T03:54:18.759Z,21.12
2019-05-17T03:56:53.000Z,22.58
2019-05-17T03:59:24.198Z,22.65
2019-05-17T04:01:55.310Z,21.25
2019-05-17T04:04:27.163Z,19.00
2019-05-17T04:06:58.219Z,20.88
2019-05-17T04:09:29.234Z,18.00
2019-05-17T04:12:02.938Z,23.65
2019-05-17T04:14:33.708Z,18.95
2019-05-17T04:17:06.129Z,22.73
2019-05-17T04:19:37.191Z,23.87
2019-05-17T04:22:08.225Z,17.27
2019-05-17T04:24:39.268Z,19.27
2019-05-17T04:27:13.404Z,21.52
2019-05-17T04:29:43.099Z,20.05
2019-05-17T04:32:14.149Z,21.23
2019-05-17T04:34:45.225Z,23.05
2019-05-17T04:37:16.235Z,23.87
2019-05-17T04:39:48.356Z,22.87
2019-05-17T04:42:22.426Z,23.98
2019-05-17T04:44:52.863Z,20.40
2019-05-17T04:47:24.091Z,26.82
2019-05-17T04:49:55.181Z,21.15
2019-05-17T04:52:26.983Z,21.17
2019-05-17T04:54:58.045Z,19.27
2019-05-17T04:57:32.336Z,18.42
2019-05-17T05:00:04.270Z,20.77
2019-05-17T05:02:34.494Z,19.57
2019-05-17T05:05:06.037Z,19.50
2019-05-17T05:07:37.067Z,18.35
2019-05-17T05:10:08.389Z,15.18
2019-05-17T05:12:39.412Z,11.97
2019-05-17T05:15:12.191Z,16.05
2019-05-17T05:17:43.402Z,13.93
2019-05-17T05:20:14.564Z,12.37
2019-05-17T05:22:45.616Z,9.60
2019-05-17T05:25:16.724Z,12.30
2019-05-17T05:27:47.719Z,11.12
2019-05-17T05:30:18.761Z,12.18
2019-05-17T05:32:49.775Z,10.90
2019-05-17T05:35:22.462Z,11.20
2019-05-17T05:37:53.702Z,11.05
2019-05-17T05:40:24.694Z,10.93
2019-05-17T05:42:55.656Z,9.25
2019-05-17T05:45:27.416Z,11.40
2019-05-17T05:48:01.627Z,12.43
2019-05-17T05:50:32.453Z,12.47
2019-05-17T05:53:03.883Z,13.68
2019-05-17T05:55:34.881Z,12.53
2019-05-17T05:58:05.907Z,11.33
2019-05-17T06:00:36.887Z,11.63
2019-05-17T06:03:07.965Z,13.43
2019-05-17T06:05:38.977Z,12.63
2019-05-17T06:08:12.108Z,12.82
2019-05-17T06:10:43.062Z,13.43
2019-05-17T06:13:14.262Z,13.43
2019-05-17T06:15:45.891Z,11.15
2019-05-17T06:18:16.899Z,10.75
2019-05-17T06:20:47.911Z,11.40
2019-05-17T06:23:19.499Z,10.82
2019-05-17T06:25:52.243Z,12.05
2019-05-17T06:28:23.392Z,12.50
2019-05-17T06:30:54.440Z,12.10
2019-05-17T06:33:30.685Z,12.45
2019-05-17T06:35:58.141Z,11.88
2019-05-17T06:38:29.124Z,11.48
2019-05-17T06:41:01.601Z,12.45
2019-05-17T06:43:32.848Z,12.23
2019-05-17T06:46:03.818Z,11.00
2019-05-17T06:48:34.806Z,13.10
2019-05-17T06:51:05.808Z,12.47
2019-05-17T06:53:36.779Z,13.75
2019-05-17T06:56:07.768Z,12.63
2019-05-17T06:58:38.744Z,13.18
2019-05-17T07:01:09.800Z,15.18
2019-05-17T07:03:40.815Z,13.68
2019-05-17T07:06:13.479Z,13.43
2019-05-17T07:08:44.523Z,13.22
2019-05-17T07:11:15.511Z,15.00
2019-05-17T07:13:49.500Z,12.78
2019-05-17T07:16:20.175Z,13.35
2019-05-17T07:18:51.169Z,13.50
2019-05-17T07:21:22.186Z,14.47
2019-05-17T07:23:53.194Z,12.20
2019-05-17T07:26:24.199Z,14.55
2019-05-17T07:28:55.212Z,16.07
2019-05-17T07:31:27.098Z,15.15
2019-05-17T07:33:59.841Z,13.93
2019-05-17T07:36:31.135Z,14.23
2019-05-17T07:39:02.155Z,13.98
2019-05-17T07:41:33.612Z,17.92
2019-05-17T07:44:04.627Z,15.60
2019-05-17T07:46:35.759Z,16.05
2019-05-17T07:49:07.029Z,15.10
2019-05-17T07:51:39.579Z,18.12
2019-05-17T07:54:10.771Z,16.05
2019-05-17T07:56:41.811Z,18.15
2019-05-17T07:59:12.801Z,15.05
2019-05-17T08:01:43.841Z,16.75
2019-05-17T08:04:14.853Z,16.30
2019-05-17T08:06:45.878Z,15.53
2019-05-17T08:09:16.921Z,17.15
2019-05-17T08:11:50.059Z,17.52
2019-05-17T08:14:30.011Z,17.95
2019-05-17T08:16:53.309Z,16.82
2019-05-17T08:19:24.826Z,16.37
2019-05-17T08:21:55.840Z,16.32
2019-05-17T08:24:27.119Z,17.12
2019-05-17T08:26:59.944Z,16.27
2019-05-17T08:29:31.045Z,15.78
2019-05-17T08:32:02.054Z,19.02
2019-05-17T08:34:33.119Z,17.75
2019-05-17T08:37:04.131Z,16.07
2019-05-17T08:39:35.164Z,17.30
2019-05-17T08:42:06.213Z,20.43
2019-05-17T08:44:39.267Z,19.65
2019-05-17T08:47:10.284Z,19.07
2019-05-17T08:49:41.516Z,20.37
2019-05-17T08:52:13.294Z,18.30
2019-05-17T08:54:44.358Z,17.65
2019-05-17T08:57:15.375Z,18.15
2019-05-17T08:59:49.602Z,19.57
2019-05-17T09:02:20.224Z,18.27
2019-05-17T09:04:51.278Z,18.10
2019-05-17T09:07:22.244Z,18.50
2019-05-17T09:09:53.386Z,19.50
2019-05-17T09:12:24.408Z,18.02
2019-05-17T09:14:55.450Z,20.45
2019-05-17T09:17:29.876Z,18.82
2019-05-17T09:20:00.907Z,20.27
2019-05-17T09:22:32.012Z,18.40
2019-05-17T09:25:03.421Z,21.10
2019-05-17T09:27:34.512Z,19.27
2019-05-17T09:30:09.472Z,19.87
2019-05-17T09:32:40.824Z,20.35
2019-05-17T09:35:12.058Z,19.87
2019-05-17T09:37:43.047Z,17.45
2019-05-17T09:40:14.033Z,18.12
2019-05-17T09:42:45.079Z,19.62
2019-05-17T09:45:16.156Z,15.35
2019-05-17T09:47:47.346Z,16.87
2019-05-17T09:50:20.006Z,14.00
2019-05-17T09:52:51.250Z,15.55
2019-05-17T09:55:22.298Z,16.20
2019-05-17T09:57:53.316Z,20.20
2019-05-17T10:00:25.891Z,15.10
2019-05-17T10:02:56.903Z,16.65
2019-05-17T10:05:31.015Z,15.60
2019-05-17T10:08:00.599Z,15.18
2019-05-17T10:10:32.162Z,14.53
2019-05-17T10:13:03.164Z,16.40
2019-05-17T10:15:34.189Z,18.15
2019-05-17T10:18:05.268Z,14.73
2019-05-17T10:20:36.285Z,15.85
2019-05-17T10:23:07.349Z,16.37
2019-05-17T10:25:40.054Z,12.82
2019-05-17T10:28:11.379Z,13.83
2019-05-17T10:30:42.411Z,12.25
2019-05-17T10:33:13.454Z,11.75
2019-05-17T10:35:44.508Z,15.72
2019-05-17T10:38:15.520Z,12.10
2019-05-17T10:40:47.258Z,14.03
2019-05-17T10:43:20.269Z,15.70
2019-05-17T10:45:50.928Z,15.28
2019-05-17T10:48:21.956Z,16.80
2019-05-17T10:50:53.017Z,15.40
2019-05-17T10:53:23.987Z,13.65
2019-05-17T10:55:55.069Z,15.68
2019-05-17T10:58:26.240Z,14.15
2019-05-17T11:00:57.234Z,14.80
2019-05-17T11:03:29.681Z,13.72
2019-05-17T11:06:01.025Z,11.25
2019-05-17T11:08:32.017Z,10.95
2019-05-17T11:11:03.759Z,12.15
2019-05-17T11:13:34.746Z,12.15
2019-05-17T11:16:05.711Z,12.07
2019-05-17T11:18:36.714Z,11.10
2019-05-17T11:21:07.672Z,10.38
2019-05-17T11:23:38.699Z,10.08
2019-05-17T11:26:09.678Z,11.55
2019-05-17T11:28:40.729Z,10.50
2019-05-17T11:31:11.745Z,9.25
2019-05-17T11:33:42.777Z,8.40
2019-05-17T11:36:13.773Z,8.80
2019-05-17T11:38:44.779Z,9.10
2019-05-17T11:41:21.142Z,10.65
2019-05-17T11:43:48.553Z,10.85
2019-05-17T11:46:19.613Z,9.40
2019-05-17T11:48:50.638Z,8.48
2019-05-17T11:51:21.716Z,7.50
2019-05-17T11:53:52.711Z,6.90
2019-05-17T11:56:23.714Z,8.40
2019-05-17T11:58:54.771Z,7.33
2019-05-17T12:01:26.153Z,6.60
2019-05-17T12:03:57.162Z,6.10
2019-05-17T12:06:28.200Z,5.95
2019-05-17T12:08:59.224Z,6.90
2019-05-17T12:11:30.398Z,8.63
2019-05-17T12:14:01.370Z,5.87
2019-05-17T12:16:32.478Z,5.85
2019-05-17T12:19:03.497Z,6.10
2019-05-17T12:21:34.559Z,6.58
2019-05-17T12:24:05.575Z,9.55
2019-05-17T12:26:36.671Z,6.22
2019-05-17T12:29:07.682Z,3.75
2019-05-17T12:31:38.656Z,3.37
2019-05-17T12:34:09.680Z,2.85
2019-05-17T12:36:40.743Z,3.67
2019-05-17T12:39:11.763Z,3.60
2019-05-17T12:41:42.832Z,3.87
2019-05-17T12:44:13.937Z,4.17
2019-05-17T12:46:44.988Z,2.60
2019-05-17T12:49:16.005Z,2.12
2019-05-17T12:51:47.588Z,3.02
2019-05-17T12:54:18.621Z,2.27
2019-05-17T12:56:49.617Z,2.60
2019-05-17T12:59:20.703Z,3.17
2019-05-17T13:01:51.702Z,3.20
2019-05-17T13:04:22.746Z,4.08
2019-05-17T13:06:53.760Z,4.35
2019-05-17T13:09:24.731Z,4.12
2019-05-17T13:11:55.695Z,4.80
2019-05-17T13:14:27.105Z,4.97
2019-05-17T13:16:58.100Z,6.03
2019-05-17T13:19:29.047Z,6.35
2019-05-17T13:22:00.078Z,7.67
2019-05-17T13:24:33.969Z,7.05
2019-05-17T13:27:04.939Z,4.08
2019-05-17T13:29:35.976Z,4.20
2019-05-17T13:32:07.160Z,6.30
2019-05-17T13:34:38.410Z,4.22
2019-05-17T13:37:09.397Z,5.72
2019-05-17T13:39:40.512Z,4.78
2019-05-17T13:42:11.546Z,4.53
2019-05-17T13:44:42.707Z,3.75
2019-05-17T13:47:13.759Z,3.20
2019-05-17T13:49:44.763Z,2.67
2019-05-17T13:52:15.804Z,4.22
2019-05-17T13:54:47.127Z,3.02
2019-05-17T13:57:18.175Z,4.05
2019-05-17T13:59:50.029Z,3.98
2019-05-17T14:02:21.090Z,3.37
2019-05-17T14:04:52.149Z,4.20
2019-05-17T14:07:23.167Z,5.50
2019-05-17T14:09:54.162Z,7.67
2019-05-17T14:12:25.243Z,8.80
2019-05-17T14:14:56.211Z,5.55
2019-05-17T14:17:28.620Z,4.75
2019-05-17T14:19:59.615Z,4.45
2019-05-17T14:22:30.628Z,5.00
2019-05-17T14:25:01.678Z,5.12
2019-05-17T14:27:33.066Z,5.33
2019-05-17T14:30:05.931Z,4.47
2019-05-17T14:32:36.988Z,5.60
2019-05-17T14:35:08.268Z,6.08
2019-05-17T14:37:39.452Z,6.03
2019-05-17T14:40:10.849Z,6.08
2019-05-17T14:42:41.912Z,5.87
2019-05-17T14:45:13.126Z,5.78
2019-05-17T14:47:44.197Z,5.25
2019-05-17T14:50:15.427Z,7.67
2019-05-17T14:52:47.844Z,5.12
2019-05-17T14:55:18.987Z,6.42
2019-05-17T14:57:50.065Z,5.70
2019-05-17T15:00:21.219Z,4.62
2019-05-17T15:02:52.246Z,9.13
2019-05-17T15:05:23.247Z,4.55
2019-05-17T15:07:54.280Z,5.87
2019-05-17T15:10:25.328Z,7.08
2019-05-17T15:12:56.316Z,6.25
2019-05-17T15:15:28.493Z,5.60
2019-05-17T15:17:59.478Z,8.80
2019-05-17T15:20:30.504Z,6.30
2019-05-17T15:23:01.571Z,8.25
2019-05-17T15:25:32.758Z,6.92
2019-05-17T15:28:03.796Z,6.95
2019-05-17T15:30:34.872Z,5.95
2019-05-17T15:33:05.964Z,6.58
2019-05-17T15:35:36.985Z,6.65
2019-05-17T15:38:10.932Z,8.63
2019-05-17T15:40:40.972Z,7.45
2019-05-17T15:43:12.011Z,7.25
2019-05-17T15:45:43.034Z,8.13
2019-05-17T15:48:14.037Z,7.35
2019-05-17T15:50:45.047Z,9.10
2019-05-17T15:53:16.141Z,9.08
2019-05-17T15:55:48.022Z,8.03
2019-05-17T15:58:19.093Z,8.43
2019-05-17T16:00:50.264Z,7.92
2019-05-17T16:03:21.250Z,7.75
2019-05-17T16:05:52.270Z,8.38
2019-05-17T16:08:23.699Z,8.23
2019-05-17T16:10:54.787Z,9.73
2019-05-17T16:13:25.836Z,9.00
2019-05-17T16:15:56.881Z,7.65
2019-05-17T16:18:27.934Z,7.60
2019-05-17T16:20:58.953Z,6.72
2019-05-17T16:23:29.947Z,6.40
2019-05-17T16:26:01.717Z,6.35
2019-05-17T16:28:34.367Z,8.28
2019-05-17T16:31:05.375Z,6.95
2019-05-17T16:36:08.936Z,10.85
2019-05-17T16:38:39.952Z,10.88
2019-05-17T16:41:11.055Z,13.65
2019-05-17T16:43:42.103Z,9.68
2019-05-17T16:46:13.181Z,8.85
2019-05-17T16:48:44.231Z,9.38
2019-05-17T16:51:15.260Z,9.15
2019-05-17T16:53:46.260Z,13.72
2019-05-17T16:56:17.228Z,8.28
2019-05-17T16:58:48.211Z,7.78
2019-05-17T17:01:19.182Z,11.35
2019-05-17T17:03:50.137Z,8.48
2019-05-17T17:06:21.445Z,10.18
2019-05-17T17:08:52.461Z,7.67
2019-05-17T17:11:23.505Z,9.03
2019-05-17T17:13:54.503Z,8.45
2019-05-17T17:16:25.570Z,11.53
2019-05-17T17:18:56.590Z,9.23
2019-05-17T17:21:27.858Z,7.50
2019-05-17T17:23:59.220Z,7.75
2019-05-17T17:26:30.269Z,7.67
2019-05-17T17:29:01.290Z,7.95
2019-05-17T17:31:32.270Z,7.08
2019-05-17T17:34:03.299Z,8.03
2019-05-17T17:36:34.285Z,7.53
2019-05-17T17:39:06.611Z,9.80
2019-05-17T17:41:37.635Z,7.72
2019-05-17T17:44:08.601Z,9.15
2019-05-17T17:46:39.610Z,9.88
2019-05-17T17:49:10.677Z,11.05
2019-05-17T17:51:41.819Z,9.93
2019-05-17T17:54:12.874Z,10.40
2019-05-17T17:56:44.011Z,18.70
2019-05-17T17:59:15.030Z,10.35
2019-05-17T18:01:46.103Z,9.88
2019-05-17T18:04:17.121Z,10.38
2019-05-17T18:06:48.133Z,8.98
2019-05-17T18:09:19.150Z,11.18
2019-05-17T18:11:50.184Z,8.70
2019-05-17T18:14:21.203Z,11.20
2019-05-17T18:16:52.223Z,8.48
2019-05-17T18:19:23.280Z,9.00
2019-05-17T18:21:54.321Z,10.48
2019-05-17T18:24:25.295Z,9.05
2019-05-17T18:26:56.289Z,9.93
2019-05-17T18:29:28.055Z,9.85
2019-05-17T18:31:59.176Z,11.53
2019-05-17T18:34:30.150Z,10.30
2019-05-17T18:37:01.166Z,10.25
2019-05-17T18:39:32.170Z,10.28
2019-05-17T18:42:03.214Z,9.03
2019-05-17T18:44:34.307Z,9.60
2019-05-17T18:47:05.416Z,8.10
2019-05-17T18:49:36.447Z,9.70
2019-05-17T18:52:07.544Z,9.23
2019-05-17T18:54:38.499Z,8.08
2019-05-17T18:57:09.552Z,7.90
2019-05-17T18:59:40.488Z,9.28
2019-05-17T19:02:11.509Z,9.68
2019-05-17T19:04:42.500Z,11.33
2019-05-17T19:07:13.511Z,8.60
2019-05-17T19:09:44.545Z,8.08
2019-05-17T19:12:15.767Z,7.53
2019-05-17T19:14:47.203Z,9.63
2019-05-17T19:17:19.269Z,8.33
2019-05-17T19:19:50.267Z,9.25
2019-05-17T19:22:21.241Z,9.45
2019-05-17T19:24:52.234Z,8.40
2019-05-17T19:27:23.304Z,8.25
2019-05-17T19:29:54.305Z,8.83
2019-05-17T19:32:25.275Z,9.30
2019-05-17T19:34:56.236Z,9.30
2019-05-17T19:37:28.001Z,10.30
2019-05-17T19:39:58.978Z,10.03
2019-05-17T19:42:29.969Z,11.40
2019-05-17T19:45:00.946Z,9.70
2019-05-17T19:47:31.933Z,10.43
2019-05-17T19:50:02.895Z,10.45
2019-05-17T19:52:33.889Z,13.68
2019-05-17T19:55:08.491Z,8.55
2019-05-17T19:57:39.552Z,10.08
2019-05-17T20:00:11.710Z,10.18
2019-05-17T20:02:42.713Z,10.63
2019-05-17T20:05:13.853Z,11.35
2019-05-17T20:07:45.743Z,11.35
2019-05-17T20:10:17.426Z,9.15
2019-05-17T20:12:48.424Z,11.43
2019-05-17T20:15:32.345Z,11.90
2019-05-17T20:17:52.165Z,10.28
2019-05-17T20:20:23.134Z,11.33
2019-05-17T20:22:54.166Z,12.20
2019-05-17T20:25:25.144Z,11.20
2019-05-17T20:27:56.119Z,11.30
2019-05-17T20:30:27.471Z,9.58
2019-05-17T20:32:58.450Z,10.15
2019-05-17T20:35:29.463Z,14.15
2019-05-17T20:38:00.430Z,11.43
2019-05-17T20:40:31.419Z,10.30
2019-05-17T20:43:02.544Z,12.18
2019-05-17T20:45:33.828Z,9.63
2019-05-17T20:48:04.865Z,11.12
2019-05-17T20:50:35.874Z,10.82
2019-05-17T20:53:18.270Z,10.93
2019-05-17T20:55:40.190Z,10.25
2019-05-17T20:58:11.187Z,14.00
2019-05-17T21:00:42.570Z,10.82
2019-05-17T21:03:14.017Z,11.95
2019-05-17T21:05:45.192Z,9.70
2019-05-17T21:08:16.173Z,12.58
2019-05-17T21:10:47.453Z,12.13
2019-05-17T21:13:18.526Z,12.35
2019-05-17T21:15:49.521Z,12.20
2019-05-17T21:18:20.496Z,11.10
2019-05-17T21:20:51.506Z,11.38
2019-05-17T21:23:22.496Z,11.25
2019-05-17T21:25:53.472Z,13.32
2019-05-17T21:28:24.637Z,10.45
2019-05-17T21:30:55.646Z,10.10
2019-05-17T21:33:27.970Z,10.38
2019-05-17T21:35:59.048Z,13.32
2019-05-17T21:38:30.024Z,10.13
2019-05-17T21:41:01.378Z,10.40
2019-05-17T21:43:32.352Z,11.10
2019-05-17T21:46:04.412Z,10.60
2019-05-17T21:48:35.490Z,12.25
2019-05-17T21:51:07.462Z,11.35
2019-05-17T21:53:38.428Z,14.38
2019-05-17T21:56:09.522Z,9.68
2019-05-17T21:58:40.514Z,10.88
2019-05-17T22:01:15.660Z,10.18
2019-05-17T22:03:47.759Z,12.75
2019-05-17T22:06:18.807Z,10.60
2019-05-17T22:08:49.782Z,14.20
2019-05-17T22:11:20.834Z,13.55
2019-05-17T22:13:51.801Z,12.03
2019-05-17T22:16:22.778Z,15.23
2019-05-17T22:18:53.756Z,11.68
2019-05-17T22:21:24.730Z,13.15
2019-05-17T22:23:55.703Z,13.28
2019-05-17T22:26:27.234Z,11.75
2019-05-17T22:28:58.189Z,12.98
2019-05-17T22:31:29.170Z,13.58
2019-05-17T22:34:00.154Z,14.45
2019-05-17T22:36:31.128Z,11.97
2019-05-17T22:39:02.110Z,12.00
2019-05-17T22:41:33.087Z,13.05
2019-05-17T22:44:04.068Z,13.05
2019-05-17T22:46:36.566Z,12.53
2019-05-17T22:49:07.807Z,16.70
2019-05-17T22:51:38.779Z,15.58
2019-05-17T22:54:09.824Z,13.85
2019-05-17T22:56:40.816Z,14.87
2019-05-17T22:59:11.791Z,14.30
2019-05-17T23:01:42.783Z,15.75
2019-05-17T23:04:13.773Z,13.22
2019-05-17T23:06:44.749Z,14.13
2019-05-17T23:09:15.738Z,13.15
2019-05-17T23:11:47.779Z,19.23
2019-05-17T23:14:18.774Z,13.10
2019-05-17T23:16:51.993Z,13.10
2019-05-17T23:19:22.461Z,12.33
2019-05-17T23:21:53.429Z,13.18
2019-05-17T23:24:24.440Z,13.60
2019-05-17T23:26:55.396Z,13.70
2019-05-17T23:29:28.145Z,14.83
2019-05-17T23:31:59.115Z,12.93
2019-05-17T23:34:30.102Z,15.35
2019-05-17T23:37:01.085Z,13.40
2019-05-17T23:39:32.240Z,14.75
2019-05-17T23:42:03.212Z,16.12
2019-05-17T23:44:34.197Z,14.30
2019-05-17T23:47:07.390Z,14.98
2019-05-17T23:49:37.865Z,14.33
2019-05-17T23:52:08.852Z,13.38
2019-05-17T23:54:39.825Z,12.93
2019-05-17T23:57:10.815Z,13.88
2019-05-17T23:59:41.951Z,13.10
